sensor_id;sensor_type;location;lat;lon;timestamp;temperature;humidity
11136;DHT22;5622;50.840;4.948;2022-07-19T00:00:09;21.60;90.10
11136;DHT22;5622;50.840;4.948;2022-07-19T00:02:37;21.60;90.10
11136;DHT22;5622;50.840;4.948;2022-07-19T00:05:05;21.60;90.30
11136;DHT22;5622;50.840;4.948;2022-07-19T00:07:33;21.60;90.20
11136;DHT22;5622;50.840;4.948;2022-07-19T00:10:00;21.60;90.30
11136;DHT22;5622;50.840;4.948;2022-07-19T00:12:27;21.50;90.50
11136;DHT22;5622;50.840;4.948;2022-07-19T00:14:56;21.50;90.60
11136;DHT22;5622;50.840;4.948;2022-07-19T00:17:23;21.50;90.40
11136;DHT22;5622;50.840;4.948;2022-07-19T00:19:50;21.50;90.50
11136;DHT22;5622;50.840;4.948;2022-07-19T00:22:17;21.40;90.50
11136;DHT22;5622;50.840;4.948;2022-07-19T00:24:44;21.40;90.50
11136;DHT22;5622;50.840;4.948;2022-07-19T00:27:11;21.40;90.80
11136;DHT22;5622;50.840;4.948;2022-07-19T00:29:38;21.40;91.10
11136;DHT22;5622;50.840;4.948;2022-07-19T00:32:07;21.40;91.20
11136;DHT22;5622;50.840;4.948;2022-07-19T00:34:34;21.30;91.10
11136;DHT22;5622;50.840;4.948;2022-07-19T00:37:01;21.30;91.00
11136;DHT22;5622;50.840;4.948;2022-07-19T00:39:28;21.30;91.10
11136;DHT22;5622;50.840;4.948;2022-07-19T00:41:55;21.30;91.50
11136;DHT22;5622;50.840;4.948;2022-07-19T00:44:23;21.30;91.70
11136;DHT22;5622;50.840;4.948;2022-07-19T00:46:50;21.30;91.80
11136;DHT22;5622;50.840;4.948;2022-07-19T00:49:18;21.20;91.60
11136;DHT22;5622;50.840;4.948;2022-07-19T00:51:46;21.20;91.40
11136;DHT22;5622;50.840;4.948;2022-07-19T00:54:14;21.20;91.50
11136;DHT22;5622;50.840;4.948;2022-07-19T00:56:44;21.20;91.80
11136;DHT22;5622;50.840;4.948;2022-07-19T00:59:14;21.20;92.00
11136;DHT22;5622;50.840;4.948;2022-07-19T01:01:44;21.10;91.70
11136;DHT22;5622;50.840;4.948;2022-07-19T01:04:12;21.10;91.60
11136;DHT22;5622;50.840;4.948;2022-07-19T01:06:41;21.10;91.60
11136;DHT22;5622;50.840;4.948;2022-07-19T01:09:08;21.00;91.60
11136;DHT22;5622;50.840;4.948;2022-07-19T01:11:35;21.00;91.70
11136;DHT22;5622;50.840;4.948;2022-07-19T01:14:02;20.90;91.80
11136;DHT22;5622;50.840;4.948;2022-07-19T01:16:30;21.00;91.80
11136;DHT22;5622;50.840;4.948;2022-07-19T01:18:57;20.90;91.80
11136;DHT22;5622;50.840;4.948;2022-07-19T01:21:26;20.90;91.80
11136;DHT22;5622;50.840;4.948;2022-07-19T01:23:53;20.90;92.00
11136;DHT22;5622;50.840;4.948;2022-07-19T01:26:20;20.80;92.30
11136;DHT22;5622;50.840;4.948;2022-07-19T01:28:47;20.90;92.40
11136;DHT22;5622;50.840;4.948;2022-07-19T01:31:14;20.80;92.70
11136;DHT22;5622;50.840;4.948;2022-07-19T01:33:43;20.90;93.10
11136;DHT22;5622;50.840;4.948;2022-07-19T01:36:11;20.80;93.40
11136;DHT22;5622;50.840;4.948;2022-07-19T01:38:39;20.90;93.70
11136;DHT22;5622;50.840;4.948;2022-07-19T01:41:07;20.80;93.90
11136;DHT22;5622;50.840;4.948;2022-07-19T01:43:34;20.80;94.00
11136;DHT22;5622;50.840;4.948;2022-07-19T01:46:02;20.80;94.20
11136;DHT22;5622;50.840;4.948;2022-07-19T01:48:29;20.80;94.30
11136;DHT22;5622;50.840;4.948;2022-07-19T01:50:56;20.80;94.50
11136;DHT22;5622;50.840;4.948;2022-07-19T01:53:24;20.80;94.40
11136;DHT22;5622;50.840;4.948;2022-07-19T01:55:52;20.70;94.60
11136;DHT22;5622;50.840;4.948;2022-07-19T01:58:19;20.70;94.60
11136;DHT22;5622;50.840;4.948;2022-07-19T02:00:46;20.70;94.70
11136;DHT22;5622;50.840;4.948;2022-07-19T02:03:14;20.60;94.70
11136;DHT22;5622;50.840;4.948;2022-07-19T02:05:42;20.60;95.00
11136;DHT22;5622;50.840;4.948;2022-07-19T02:08:09;20.60;95.40
11136;DHT22;5622;50.840;4.948;2022-07-19T02:10:36;20.60;95.60
11136;DHT22;5622;50.840;4.948;2022-07-19T02:13:04;20.50;95.70
11136;DHT22;5622;50.840;4.948;2022-07-19T02:15:31;20.50;95.80
11136;DHT22;5622;50.840;4.948;2022-07-19T02:17:59;20.50;96.10
11136;DHT22;5622;50.840;4.948;2022-07-19T02:20:27;20.40;96.20
11136;DHT22;5622;50.840;4.948;2022-07-19T02:22:54;20.40;96.20
11136;DHT22;5622;50.840;4.948;2022-07-19T02:25:22;20.30;96.10
11136;DHT22;5622;50.840;4.948;2022-07-19T02:27:49;20.30;96.10
11136;DHT22;5622;50.840;4.948;2022-07-19T02:30:18;20.20;96.10
11136;DHT22;5622;50.840;4.948;2022-07-19T02:32:45;20.20;96.30
11136;DHT22;5622;50.840;4.948;2022-07-19T02:35:12;20.20;96.50
11136;DHT22;5622;50.840;4.948;2022-07-19T02:37:40;20.20;96.60
11136;DHT22;5622;50.840;4.948;2022-07-19T02:40:08;20.20;96.80
11136;DHT22;5622;50.840;4.948;2022-07-19T02:42:35;20.20;96.80
11136;DHT22;5622;50.840;4.948;2022-07-19T02:45:03;20.10;96.80
11136;DHT22;5622;50.840;4.948;2022-07-19T02:47:32;20.10;96.90
11136;DHT22;5622;50.840;4.948;2022-07-19T02:49:59;20.10;97.30
11136;DHT22;5622;50.840;4.948;2022-07-19T02:52:28;20.10;97.50
11136;DHT22;5622;50.840;4.948;2022-07-19T02:54:55;20.10;97.70
11136;DHT22;5622;50.840;4.948;2022-07-19T02:57:22;20.10;97.80
11136;DHT22;5622;50.840;4.948;2022-07-19T02:59:49;20.10;97.70
11136;DHT22;5622;50.840;4.948;2022-07-19T03:02:17;20.00;97.60
11136;DHT22;5622;50.840;4.948;2022-07-19T03:04:45;20.00;97.60
11136;DHT22;5622;50.840;4.948;2022-07-19T03:07:12;20.00;97.60
11136;DHT22;5622;50.840;4.948;2022-07-19T03:09:40;20.00;97.60
11136;DHT22;5622;50.840;4.948;2022-07-19T03:12:07;20.00;97.80
11136;DHT22;5622;50.840;4.948;2022-07-19T03:14:34;19.90;97.90
11136;DHT22;5622;50.840;4.948;2022-07-19T03:17:01;19.90;97.90
11136;DHT22;5622;50.840;4.948;2022-07-19T03:19:28;19.90;97.90
11136;DHT22;5622;50.840;4.948;2022-07-19T03:21:57;19.90;98.20
11136;DHT22;5622;50.840;4.948;2022-07-19T03:24:24;19.90;98.20
11136;DHT22;5622;50.840;4.948;2022-07-19T03:26:51;19.90;98.20
11136;DHT22;5622;50.840;4.948;2022-07-19T03:29:18;19.90;98.20
11136;DHT22;5622;50.840;4.948;2022-07-19T03:31:46;19.90;98.20
11136;DHT22;5622;50.840;4.948;2022-07-19T03:34:13;19.90;98.30
11136;DHT22;5622;50.840;4.948;2022-07-19T03:36:40;19.90;98.50
11136;DHT22;5622;50.840;4.948;2022-07-19T03:39:09;19.80;98.70
11136;DHT22;5622;50.840;4.948;2022-07-19T03:41:36;19.80;98.50
11136;DHT22;5622;50.840;4.948;2022-07-19T03:44:03;19.80;98.50
11136;DHT22;5622;50.840;4.948;2022-07-19T03:46:30;19.80;98.40
11136;DHT22;5622;50.840;4.948;2022-07-19T03:48:57;19.70;98.40
11136;DHT22;5622;50.840;4.948;2022-07-19T03:51:24;19.60;98.10
11136;DHT22;5622;50.840;4.948;2022-07-19T03:53:52;19.50;98.30
11136;DHT22;5622;50.840;4.948;2022-07-19T03:56:20;19.40;98.40
11136;DHT22;5622;50.840;4.948;2022-07-19T03:58:48;19.10;98.50
11136;DHT22;5622;50.840;4.948;2022-07-19T04:01:16;18.90;99.10
11136;DHT22;5622;50.840;4.948;2022-07-19T04:03:43;18.80;99.20
11136;DHT22;5622;50.840;4.948;2022-07-19T04:06:11;18.80;99.30
11136;DHT22;5622;50.840;4.948;2022-07-19T04:08:38;18.70;99.50
11136;DHT22;5622;50.840;4.948;2022-07-19T04:11:05;18.60;99.90
11136;DHT22;5622;50.840;4.948;2022-07-19T04:13:35;18.60;99.90
11136;DHT22;5622;50.840;4.948;2022-07-19T04:16:03;18.60;99.90
11136;DHT22;5622;50.840;4.948;2022-07-19T04:18:30;18.50;99.90
11136;DHT22;5622;50.840;4.948;2022-07-19T04:20:57;18.60;99.90
11136;DHT22;5622;50.840;4.948;2022-07-19T04:23:24;18.60;99.90
11136;DHT22;5622;50.840;4.948;2022-07-19T04:25:51;18.60;99.90
11136;DHT22;5622;50.840;4.948;2022-07-19T04:28:19;18.60;99.90
11136;DHT22;5622;50.840;4.948;2022-07-19T04:30:47;18.60;99.90
11136;DHT22;5622;50.840;4.948;2022-07-19T04:33:14;18.70;99.90
11136;DHT22;5622;50.840;4.948;2022-07-19T04:35:42;18.70;99.90
11136;DHT22;5622;50.840;4.948;2022-07-19T04:38:09;18.80;99.90
11136;DHT22;5622;50.840;4.948;2022-07-19T04:40:36;18.80;99.90
11136;DHT22;5622;50.840;4.948;2022-07-19T04:43:04;18.90;99.90
11136;DHT22;5622;50.840;4.948;2022-07-19T04:45:31;18.90;99.90
11136;DHT22;5622;50.840;4.948;2022-07-19T04:47:59;19.00;99.90
11136;DHT22;5622;50.840;4.948;2022-07-19T04:50:26;19.10;99.90
11136;DHT22;5622;50.840;4.948;2022-07-19T04:52:54;19.10;99.90
11136;DHT22;5622;50.840;4.948;2022-07-19T04:55:21;19.20;99.90
11136;DHT22;5622;50.840;4.948;2022-07-19T04:57:48;19.20;99.90
11136;DHT22;5622;50.840;4.948;2022-07-19T05:00:15;19.20;99.90
11136;DHT22;5622;50.840;4.948;2022-07-19T05:02:42;19.30;99.90
11136;DHT22;5622;50.840;4.948;2022-07-19T05:05:11;19.30;99.90
11136;DHT22;5622;50.840;4.948;2022-07-19T05:07:39;19.30;99.90
11136;DHT22;5622;50.840;4.948;2022-07-19T05:10:07;19.40;99.90
11136;DHT22;5622;50.840;4.948;2022-07-19T05:12:35;19.40;99.90
11136;DHT22;5622;50.840;4.948;2022-07-19T05:15:02;19.40;99.90
11136;DHT22;5622;50.840;4.948;2022-07-19T05:17:29;19.50;99.90
11136;DHT22;5622;50.840;4.948;2022-07-19T05:19:57;19.50;99.90
11136;DHT22;5622;50.840;4.948;2022-07-19T05:22:25;19.50;99.90
11136;DHT22;5622;50.840;4.948;2022-07-19T05:24:53;19.50;99.90
11136;DHT22;5622;50.840;4.948;2022-07-19T05:27:21;19.60;99.90
11136;DHT22;5622;50.840;4.948;2022-07-19T05:29:48;19.60;99.90
11136;DHT22;5622;50.840;4.948;2022-07-19T05:32:15;19.60;99.90
11136;DHT22;5622;50.840;4.948;2022-07-19T05:34:42;19.60;99.90
11136;DHT22;5622;50.840;4.948;2022-07-19T05:37:10;19.60;99.90
11136;DHT22;5622;50.840;4.948;2022-07-19T05:39:38;19.70;99.90
11136;DHT22;5622;50.840;4.948;2022-07-19T05:42:05;19.70;99.90
11136;DHT22;5622;50.840;4.948;2022-07-19T05:44:32;19.70;99.90
11136;DHT22;5622;50.840;4.948;2022-07-19T05:47:00;19.70;99.90
11136;DHT22;5622;50.840;4.948;2022-07-19T05:49:27;19.80;99.90
11136;DHT22;5622;50.840;4.948;2022-07-19T05:51:54;19.80;99.90
11136;DHT22;5622;50.840;4.948;2022-07-19T05:54:21;19.80;99.90
11136;DHT22;5622;50.840;4.948;2022-07-19T05:56:49;19.80;99.90
11136;DHT22;5622;50.840;4.948;2022-07-19T05:59:16;19.80;99.90
11136;DHT22;5622;50.840;4.948;2022-07-19T06:01:46;19.80;99.90
11136;DHT22;5622;50.840;4.948;2022-07-19T06:04:13;19.90;99.90
11136;DHT22;5622;50.840;4.948;2022-07-19T06:06:40;19.90;99.90
11136;DHT22;5622;50.840;4.948;2022-07-19T06:09:08;20.00;99.90
11136;DHT22;5622;50.840;4.948;2022-07-19T06:11:37;20.00;99.90
11136;DHT22;5622;50.840;4.948;2022-07-19T06:14:06;20.00;99.90
11136;DHT22;5622;50.840;4.948;2022-07-19T06:16:34;20.10;99.90
11136;DHT22;5622;50.840;4.948;2022-07-19T06:19:03;20.10;99.90
11136;DHT22;5622;50.840;4.948;2022-07-19T06:21:31;20.20;99.90
11136;DHT22;5622;50.840;4.948;2022-07-19T06:23:58;20.20;99.90
11136;DHT22;5622;50.840;4.948;2022-07-19T06:26:25;20.30;99.90
11136;DHT22;5622;50.840;4.948;2022-07-19T06:28:53;20.40;99.90
11136;DHT22;5622;50.840;4.948;2022-07-19T06:31:22;20.40;99.90
11136;DHT22;5622;50.840;4.948;2022-07-19T06:33:50;20.40;99.90
11136;DHT22;5622;50.840;4.948;2022-07-19T06:36:18;20.50;99.90
11136;DHT22;5622;50.840;4.948;2022-07-19T06:38:46;20.60;99.90
11136;DHT22;5622;50.840;4.948;2022-07-19T06:41:15;20.60;99.90
11136;DHT22;5622;50.840;4.948;2022-07-19T06:43:43;20.70;99.90
11136;DHT22;5622;50.840;4.948;2022-07-19T06:46:10;20.80;99.90
11136;DHT22;5622;50.840;4.948;2022-07-19T06:48:39;20.80;99.90
11136;DHT22;5622;50.840;4.948;2022-07-19T06:51:07;21.00;99.90
11136;DHT22;5622;50.840;4.948;2022-07-19T06:53:35;21.00;99.90
11136;DHT22;5622;50.840;4.948;2022-07-19T06:56:03;21.20;99.90
11136;DHT22;5622;50.840;4.948;2022-07-19T06:58:30;21.20;99.90
11136;DHT22;5622;50.840;4.948;2022-07-19T07:00:57;21.30;99.90
11136;DHT22;5622;50.840;4.948;2022-07-19T07:03:26;21.40;99.90
11136;DHT22;5622;50.840;4.948;2022-07-19T07:05:54;21.50;99.90
11136;DHT22;5622;50.840;4.948;2022-07-19T07:08:22;21.60;99.90
11136;DHT22;5622;50.840;4.948;2022-07-19T07:10:49;21.70;99.90
11136;DHT22;5622;50.840;4.948;2022-07-19T07:13:16;21.90;99.90
11136;DHT22;5622;50.840;4.948;2022-07-19T07:15:43;22.00;99.90
11136;DHT22;5622;50.840;4.948;2022-07-19T07:18:10;22.10;99.90
11136;DHT22;5622;50.840;4.948;2022-07-19T07:20:38;22.30;99.90
11136;DHT22;5622;50.840;4.948;2022-07-19T07:23:06;22.40;99.90
11136;DHT22;5622;50.840;4.948;2022-07-19T07:25:33;22.70;99.90
11136;DHT22;5622;50.840;4.948;2022-07-19T07:28:00;22.90;99.90
11136;DHT22;5622;50.840;4.948;2022-07-19T07:30:28;23.10;99.90
11136;DHT22;5622;50.840;4.948;2022-07-19T07:32:55;23.30;99.90
11136;DHT22;5622;50.840;4.948;2022-07-19T07:35:22;23.60;99.90
11136;DHT22;5622;50.840;4.948;2022-07-19T07:37:49;23.90;99.50
11136;DHT22;5622;50.840;4.948;2022-07-19T07:40:18;24.20;99.30
11136;DHT22;5622;50.840;4.948;2022-07-19T07:42:45;24.40;96.80
11136;DHT22;5622;50.840;4.948;2022-07-19T07:45:12;24.60;97.00
11136;DHT22;5622;50.840;4.948;2022-07-19T07:47:40;24.90;95.80
11136;DHT22;5622;50.840;4.948;2022-07-19T07:50:09;25.20;94.00
11136;DHT22;5622;50.840;4.948;2022-07-19T07:52:36;25.40;94.00
11136;DHT22;5622;50.840;4.948;2022-07-19T07:55:04;25.60;95.00
11136;DHT22;5622;50.840;4.948;2022-07-19T07:57:33;25.90;93.60
11136;DHT22;5622;50.840;4.948;2022-07-19T08:00:00;26.20;91.70
11136;DHT22;5622;50.840;4.948;2022-07-19T08:02:28;26.50;92.10
11136;DHT22;5622;50.840;4.948;2022-07-19T08:04:55;26.90;90.20
11136;DHT22;5622;50.840;4.948;2022-07-19T08:07:22;27.10;88.80
11136;DHT22;5622;50.840;4.948;2022-07-19T08:09:52;27.30;85.40
11136;DHT22;5622;50.840;4.948;2022-07-19T08:12:19;27.60;80.10
11136;DHT22;5622;50.840;4.948;2022-07-19T08:14:49;27.70;82.40
11136;DHT22;5622;50.840;4.948;2022-07-19T08:17:16;28.00;79.90
11136;DHT22;5622;50.840;4.948;2022-07-19T08:19:43;28.30;80.10
11136;DHT22;5622;50.840;4.948;2022-07-19T08:22:14;28.30;81.10
11136;DHT22;5622;50.840;4.948;2022-07-19T08:24:41;28.50;75.20
11136;DHT22;5622;50.840;4.948;2022-07-19T08:27:08;28.60;72.70
11136;DHT22;5622;50.840;4.948;2022-07-19T08:29:36;28.70;72.70
11136;DHT22;5622;50.840;4.948;2022-07-19T08:32:05;28.80;69.70
11136;DHT22;5622;50.840;4.948;2022-07-19T08:34:32;29.00;70.50
11136;DHT22;5622;50.840;4.948;2022-07-19T08:36:59;29.20;70.00
11136;DHT22;5622;50.840;4.948;2022-07-19T08:39:26;29.50;71.10
11136;DHT22;5622;50.840;4.948;2022-07-19T08:41:53;29.80;70.20
11136;DHT22;5622;50.840;4.948;2022-07-19T08:44:22;29.90;67.80
11136;DHT22;5622;50.840;4.948;2022-07-19T08:46:49;30.00;70.80
11136;DHT22;5622;50.840;4.948;2022-07-19T08:49:18;30.30;66.90
11136;DHT22;5622;50.840;4.948;2022-07-19T08:51:47;30.40;61.40
11136;DHT22;5622;50.840;4.948;2022-07-19T08:54:15;30.60;59.80
11136;DHT22;5622;50.840;4.948;2022-07-19T08:56:42;30.70;64.60
11136;DHT22;5622;50.840;4.948;2022-07-19T08:59:28;30.80;61.60
11136;DHT22;5622;50.840;4.948;2022-07-19T09:01:56;31.00;56.40
11136;DHT22;5622;50.840;4.948;2022-07-19T09:04:25;31.00;58.90
11136;DHT22;5622;50.840;4.948;2022-07-19T09:06:55;31.20;61.20
11136;DHT22;5622;50.840;4.948;2022-07-19T09:09:24;31.40;53.70
11136;DHT22;5622;50.840;4.948;2022-07-19T09:11:53;31.70;57.50
11136;DHT22;5622;50.840;4.948;2022-07-19T09:14:22;31.70;55.80
11136;DHT22;5622;50.840;4.948;2022-07-19T09:16:59;31.70;54.50
11136;DHT22;5622;50.840;4.948;2022-07-19T09:19:31;31.90;55.00
11136;DHT22;5622;50.840;4.948;2022-07-19T09:22:01;32.00;52.50
11136;DHT22;5622;50.840;4.948;2022-07-19T09:24:29;32.20;49.50
11136;DHT22;5622;50.840;4.948;2022-07-19T09:27:02;32.30;53.80
11136;DHT22;5622;50.840;4.948;2022-07-19T09:29:31;32.50;51.10
11136;DHT22;5622;50.840;4.948;2022-07-19T09:32:02;32.30;52.70
11136;DHT22;5622;50.840;4.948;2022-07-19T09:34:34;32.50;51.60
11136;DHT22;5622;50.840;4.948;2022-07-19T09:37:12;32.40;52.80
11136;DHT22;5622;50.840;4.948;2022-07-19T09:39:44;32.30;50.10
11136;DHT22;5622;50.840;4.948;2022-07-19T09:42:13;32.50;51.70
11136;DHT22;5622;50.840;4.948;2022-07-19T09:44:40;32.60;49.80
11136;DHT22;5622;50.840;4.948;2022-07-19T09:47:07;32.50;49.20
11136;DHT22;5622;50.840;4.948;2022-07-19T09:49:36;32.90;49.10
11136;DHT22;5622;50.840;4.948;2022-07-19T09:52:04;32.90;48.90
11136;DHT22;5622;50.840;4.948;2022-07-19T09:54:31;33.10;49.10
11136;DHT22;5622;50.840;4.948;2022-07-19T09:56:59;33.30;46.40
11136;DHT22;5622;50.840;4.948;2022-07-19T09:59:27;33.40;44.20
11136;DHT22;5622;50.840;4.948;2022-07-19T10:01:55;33.50;44.00
11136;DHT22;5622;50.840;4.948;2022-07-19T10:04:25;33.60;43.00
11136;DHT22;5622;50.840;4.948;2022-07-19T10:06:54;33.60;43.50
11136;DHT22;5622;50.840;4.948;2022-07-19T10:09:23;33.90;43.80
11136;DHT22;5622;50.840;4.948;2022-07-19T10:11:51;33.90;41.60
11136;DHT22;5622;50.840;4.948;2022-07-19T10:14:19;33.90;41.80
11136;DHT22;5622;50.840;4.948;2022-07-19T10:17:08;34.10;40.40
11136;DHT22;5622;50.840;4.948;2022-07-19T10:19:39;34.10;43.40
11136;DHT22;5622;50.840;4.948;2022-07-19T10:22:10;34.10;41.00
11136;DHT22;5622;50.840;4.948;2022-07-19T10:24:45;34.20;40.20
11136;DHT22;5622;50.840;4.948;2022-07-19T10:27:14;34.40;38.80
11136;DHT22;5622;50.840;4.948;2022-07-19T10:29:42;34.40;40.30
11136;DHT22;5622;50.840;4.948;2022-07-19T10:32:11;34.40;39.40
11136;DHT22;5622;50.840;4.948;2022-07-19T10:34:40;34.40;37.60
11136;DHT22;5622;50.840;4.948;2022-07-19T10:37:09;34.20;39.10
11136;DHT22;5622;50.840;4.948;2022-07-19T10:39:38;34.20;39.90
11136;DHT22;5622;50.840;4.948;2022-07-19T10:42:16;34.10;37.30
11136;DHT22;5622;50.840;4.948;2022-07-19T10:45:09;33.90;37.40
11136;DHT22;5622;50.840;4.948;2022-07-19T10:48:03;33.90;37.10
11136;DHT22;5622;50.840;4.948;2022-07-19T10:50:45;33.90;37.10
11136;DHT22;5622;50.840;4.948;2022-07-19T10:56:33;33.90;39.00
11136;DHT22;5622;50.840;4.948;2022-07-19T10:59:02;34.10;39.00
11136;DHT22;5622;50.840;4.948;2022-07-19T11:01:32;34.30;40.10
11136;DHT22;5622;50.840;4.948;2022-07-19T11:07:19;34.50;39.00
11136;DHT22;5622;50.840;4.948;2022-07-19T11:09:54;34.80;36.40
11136;DHT22;5622;50.840;4.948;2022-07-19T11:12:31;34.90;37.80
11136;DHT22;5622;50.840;4.948;2022-07-19T11:15:00;35.10;34.60
11136;DHT22;5622;50.840;4.948;2022-07-19T11:17:28;35.20;36.60
11136;DHT22;5622;50.840;4.948;2022-07-19T11:20:04;35.30;35.70
11136;DHT22;5622;50.840;4.948;2022-07-19T11:22:38;35.10;34.60
11136;DHT22;5622;50.840;4.948;2022-07-19T11:25:07;35.00;35.10
11136;DHT22;5622;50.840;4.948;2022-07-19T11:27:39;34.70;34.90
11136;DHT22;5622;50.840;4.948;2022-07-19T11:30:07;34.60;36.60
11136;DHT22;5622;50.840;4.948;2022-07-19T11:32:35;34.50;35.50
11136;DHT22;5622;50.840;4.948;2022-07-19T11:35:04;34.40;35.20
11136;DHT22;5622;50.840;4.948;2022-07-19T11:37:33;34.30;35.80
11136;DHT22;5622;50.840;4.948;2022-07-19T11:43:23;34.00;35.10
11136;DHT22;5622;50.840;4.948;2022-07-19T11:45:51;33.80;36.60
11136;DHT22;5622;50.840;4.948;2022-07-19T11:48:25;33.70;34.20
11136;DHT22;5622;50.840;4.948;2022-07-19T11:51:05;33.60;34.20
11136;DHT22;5622;50.840;4.948;2022-07-19T11:53:34;33.60;34.90
11136;DHT22;5622;50.840;4.948;2022-07-19T11:56:02;33.50;35.30
11136;DHT22;5622;50.840;4.948;2022-07-19T11:58:31;33.50;34.20
11136;DHT22;5622;50.840;4.948;2022-07-19T12:01:05;33.40;34.40
11136;DHT22;5622;50.840;4.948;2022-07-19T12:03:33;33.40;34.00
11136;DHT22;5622;50.840;4.948;2022-07-19T12:06:03;33.30;34.00
11136;DHT22;5622;50.840;4.948;2022-07-19T12:08:39;33.30;34.40
11136;DHT22;5622;50.840;4.948;2022-07-19T12:11:20;33.20;33.60
11136;DHT22;5622;50.840;4.948;2022-07-19T12:13:51;33.20;32.60
11136;DHT22;5622;50.840;4.948;2022-07-19T12:16:19;33.20;34.70
11136;DHT22;5622;50.840;4.948;2022-07-19T12:18:51;33.10;34.70
11136;DHT22;5622;50.840;4.948;2022-07-19T12:21:25;33.20;34.50
11136;DHT22;5622;50.840;4.948;2022-07-19T12:24:09;33.20;34.60
11136;DHT22;5622;50.840;4.948;2022-07-19T12:26:37;33.20;36.70
11136;DHT22;5622;50.840;4.948;2022-07-19T12:29:19;33.30;34.70
11136;DHT22;5622;50.840;4.948;2022-07-19T12:31:47;33.20;35.40
11136;DHT22;5622;50.840;4.948;2022-07-19T12:34:15;33.20;34.60
11136;DHT22;5622;50.840;4.948;2022-07-19T12:36:42;33.10;34.20
11136;DHT22;5622;50.840;4.948;2022-07-19T12:39:21;33.00;34.00
11136;DHT22;5622;50.840;4.948;2022-07-19T12:42:00;33.10;33.60
11136;DHT22;5622;50.840;4.948;2022-07-19T12:44:30;33.20;33.90
11136;DHT22;5622;50.840;4.948;2022-07-19T12:47:02;33.10;33.10
11136;DHT22;5622;50.840;4.948;2022-07-19T12:49:43;33.20;33.10
11136;DHT22;5622;50.840;4.948;2022-07-19T12:52:10;33.20;34.00
11136;DHT22;5622;50.840;4.948;2022-07-19T12:54:37;33.20;35.80
11136;DHT22;5622;50.840;4.948;2022-07-19T12:57:05;33.30;36.00
11136;DHT22;5622;50.840;4.948;2022-07-19T12:59:33;33.30;33.80
11136;DHT22;5622;50.840;4.948;2022-07-19T13:02:07;33.30;35.90
11136;DHT22;5622;50.840;4.948;2022-07-19T13:04:34;33.30;35.30
11136;DHT22;5622;50.840;4.948;2022-07-19T13:07:01;33.40;31.40
11136;DHT22;5622;50.840;4.948;2022-07-19T13:09:29;33.30;33.50
11136;DHT22;5622;50.840;4.948;2022-07-19T13:11:56;33.30;33.10
11136;DHT22;5622;50.840;4.948;2022-07-19T13:14:23;33.50;31.70
11136;DHT22;5622;50.840;4.948;2022-07-19T13:16:52;33.40;31.40
11136;DHT22;5622;50.840;4.948;2022-07-19T13:19:19;33.30;30.80
11136;DHT22;5622;50.840;4.948;2022-07-19T13:21:46;33.40;29.50
11136;DHT22;5622;50.840;4.948;2022-07-19T13:24:14;33.30;31.50
11136;DHT22;5622;50.840;4.948;2022-07-19T13:26:41;33.30;31.10
11136;DHT22;5622;50.840;4.948;2022-07-19T13:29:08;33.30;31.20
11136;DHT22;5622;50.840;4.948;2022-07-19T13:31:35;33.30;33.40
11136;DHT22;5622;50.840;4.948;2022-07-19T13:34:04;33.40;32.10
11136;DHT22;5622;50.840;4.948;2022-07-19T13:36:33;33.50;29.40
11136;DHT22;5622;50.840;4.948;2022-07-19T13:39:00;33.60;30.40
11136;DHT22;5622;50.840;4.948;2022-07-19T13:41:28;33.60;30.90
11136;DHT22;5622;50.840;4.948;2022-07-19T13:43:55;33.60;30.00
11136;DHT22;5622;50.840;4.948;2022-07-19T13:46:22;33.60;31.00
11136;DHT22;5622;50.840;4.948;2022-07-19T13:48:49;33.70;30.10
11136;DHT22;5622;50.840;4.948;2022-07-19T13:51:18;33.80;29.30
11136;DHT22;5622;50.840;4.948;2022-07-19T13:53:45;33.80;30.90
11136;DHT22;5622;50.840;4.948;2022-07-19T13:56:14;33.70;30.00
11136;DHT22;5622;50.840;4.948;2022-07-19T13:58:41;33.80;28.60
11136;DHT22;5622;50.840;4.948;2022-07-19T14:01:10;33.60;28.30
11136;DHT22;5622;50.840;4.948;2022-07-19T14:03:38;33.60;27.40
11136;DHT22;5622;50.840;4.948;2022-07-19T14:06:05;33.60;25.80
11136;DHT22;5622;50.840;4.948;2022-07-19T14:08:36;33.60;27.80
11136;DHT22;5622;50.840;4.948;2022-07-19T14:11:03;33.60;28.60
11136;DHT22;5622;50.840;4.948;2022-07-19T14:13:31;33.60;28.20
11136;DHT22;5622;50.840;4.948;2022-07-19T14:15:59;33.60;27.90
11136;DHT22;5622;50.840;4.948;2022-07-19T14:18:28;33.60;26.30
11136;DHT22;5622;50.840;4.948;2022-07-19T14:20:55;33.70;27.80
11136;DHT22;5622;50.840;4.948;2022-07-19T14:23:23;33.70;26.40
11136;DHT22;5622;50.840;4.948;2022-07-19T14:25:51;33.90;26.90
11136;DHT22;5622;50.840;4.948;2022-07-19T14:28:19;34.10;25.70
11136;DHT22;5622;50.840;4.948;2022-07-19T14:30:46;34.10;27.30
11136;DHT22;5622;50.840;4.948;2022-07-19T14:33:13;34.20;27.90
11136;DHT22;5622;50.840;4.948;2022-07-19T14:35:41;34.20;27.50
11136;DHT22;5622;50.840;4.948;2022-07-19T14:38:15;34.10;28.20
11136;DHT22;5622;50.840;4.948;2022-07-19T14:40:42;34.10;26.70
11136;DHT22;5622;50.840;4.948;2022-07-19T14:43:11;34.00;27.20
11136;DHT22;5622;50.840;4.948;2022-07-19T14:45:38;34.00;26.70
11136;DHT22;5622;50.840;4.948;2022-07-19T14:48:06;34.00;26.90
11136;DHT22;5622;50.840;4.948;2022-07-19T14:50:33;34.10;26.20
11136;DHT22;5622;50.840;4.948;2022-07-19T14:53:01;34.10;24.90
11136;DHT22;5622;50.840;4.948;2022-07-19T14:55:28;34.20;25.10
11136;DHT22;5622;50.840;4.948;2022-07-19T14:57:55;34.30;24.90
11136;DHT22;5622;50.840;4.948;2022-07-19T15:00:24;34.30;25.50
11136;DHT22;5622;50.840;4.948;2022-07-19T15:02:51;34.30;26.30
11136;DHT22;5622;50.840;4.948;2022-07-19T15:05:18;34.30;26.40
11136;DHT22;5622;50.840;4.948;2022-07-19T15:07:45;34.30;25.50
11136;DHT22;5622;50.840;4.948;2022-07-19T15:10:12;34.20;25.80
11136;DHT22;5622;50.840;4.948;2022-07-19T15:12:40;34.20;25.80
11136;DHT22;5622;50.840;4.948;2022-07-19T15:15:07;34.20;27.60
11136;DHT22;5622;50.840;4.948;2022-07-19T15:17:37;34.20;28.50
11136;DHT22;5622;50.840;4.948;2022-07-19T15:20:05;34.10;25.30
11136;DHT22;5622;50.840;4.948;2022-07-19T15:22:33;34.10;26.50
11136;DHT22;5622;50.840;4.948;2022-07-19T15:25:03;34.10;26.20
11136;DHT22;5622;50.840;4.948;2022-07-19T15:27:31;34.20;26.70
11136;DHT22;5622;50.840;4.948;2022-07-19T15:29:58;34.20;25.10
11136;DHT22;5622;50.840;4.948;2022-07-19T15:32:27;34.20;25.70
11136;DHT22;5622;50.840;4.948;2022-07-19T15:34:56;34.10;27.00
11136;DHT22;5622;50.840;4.948;2022-07-19T15:37:23;34.20;27.80
11136;DHT22;5622;50.840;4.948;2022-07-19T15:39:50;34.10;27.00
11136;DHT22;5622;50.840;4.948;2022-07-19T15:42:17;34.00;26.40
11136;DHT22;5622;50.840;4.948;2022-07-19T15:44:44;34.00;26.70
11136;DHT22;5622;50.840;4.948;2022-07-19T15:47:11;34.00;26.80
11136;DHT22;5622;50.840;4.948;2022-07-19T15:49:38;34.00;25.20
11136;DHT22;5622;50.840;4.948;2022-07-19T15:52:07;34.00;26.10
11136;DHT22;5622;50.840;4.948;2022-07-19T15:54:35;34.10;25.50
11136;DHT22;5622;50.840;4.948;2022-07-19T15:57:03;34.10;26.30
11136;DHT22;5622;50.840;4.948;2022-07-19T15:59:30;34.10;26.90
11136;DHT22;5622;50.840;4.948;2022-07-19T16:01:57;34.10;25.70